Time;durP1;ratioP1;P1;durP2;ratioP2;P2;SDS_P1;SDS_P2;PMS_P1;PMS_P2;Temp;Humidity;BMP_temperature;BMP_pressure;BME280_temperature;BME280_humidity;BME280_pressure;Samples;Min_cycle;Max_cycle;Signal;HPM_P1;HPM_P2
2023/04/06 00:01:59;;;;;;;10.23;5.57;;;2.10;93.10;;;;;;5070651;28;20024;-66
2023/04/06 00:04:25;;;;;;;9.50;6.13;;;2.10;93.20;;;;;;5068103;28;20510;-67
2023/04/06 00:06:51;;;;;;;6.78;5.88;;;2.00;93.20;;;;;;5070688;28;20044;-66
2023/04/06 00:09:16;;;;;;;7.82;5.28;;;2.00;93.40;;;;;;5068494;28;20040;-67
2023/04/06 00:11:42;;;;;;;6.85;5.80;;;1.90;94.00;;;;;;5069467;28;20110;-67
2023/04/06 00:14:08;;;;;;;8.30;5.80;;;1.90;94.20;;;;;;5070015;28;20068;-66
2023/04/06 00:16:34;;;;;;;8.57;5.82;;;1.90;94.60;;;;;;5070273;28;20119;-67
2023/04/06 00:19:00;;;;;;;8.20;5.63;;;1.80;95.00;;;;;;5070598;28;20123;-67
2023/04/06 00:21:25;;;;;;;9.45;6.05;;;1.80;94.80;;;;;;5065623;28;20115;-67
2023/04/06 00:23:51;;;;;;;9.90;6.13;;;1.80;95.00;;;;;;5070339;28;20043;-67
2023/04/06 00:26:17;;;;;;;8.40;6.50;;;1.70;94.80;;;;;;5067442;28;20485;-66
2023/04/06 00:28:43;;;;;;;8.40;6.13;;;1.70;94.90;;;;;;5068468;28;20072;-66
2023/04/06 00:31:08;;;;;;;15.48;6.53;;;1.70;95.10;;;;;;5068032;28;20064;-67
2023/04/06 00:33:34;;;;;;;11.23;5.82;;;1.60;95.30;;;;;;5070108;28;20115;-66
2023/04/06 00:36:00;;;;;;;11.55;6.55;;;1.60;96.00;;;;;;5069912;28;20040;-66
2023/04/06 00:38:26;;;;;;;8.18;6.13;;;1.60;96.30;;;;;;5048426;28;20119;-67
2023/04/06 00:40:51;;;;;;;9.15;6.35;;;1.50;96.70;;;;;;5068945;28;20299;-66
2023/04/06 00:43:17;;;;;;;9.57;7.30;;;1.50;97.00;;;;;;5068068;28;20029;-66
2023/04/06 00:45:43;;;;;;;9.20;6.50;;;1.50;96.80;;;;;;5067566;28;20044;-67
2023/04/06 00:48:09;;;;;;;9.38;6.40;;;1.50;97.00;;;;;;5067684;28;20056;-66
2023/04/06 00:50:35;;;;;;;14.27;7.05;;;1.50;97.20;;;;;;5068020;28;20043;-66
2023/04/06 00:53:01;;;;;;;11.75;7.60;;;1.50;97.20;;;;;;5067755;28;20497;-66
2023/04/06 00:55:28;;;;;;;10.70;7.03;;;1.40;97.20;;;;;;5060809;28;20048;-67
2023/04/06 00:57:56;;;;;;;11.02;6.60;;;1.40;97.30;;;;;;5067657;28;20093;-66
2023/04/06 01:00:22;;;;;;;9.00;6.88;;;1.40;97.40;;;;;;5067835;28;20040;-66
2023/04/06 01:02:48;;;;;;;9.45;7.18;;;1.40;97.60;;;;;;5065480;28;20050;-66
2023/04/06 01:05:14;;;;;;;11.32;7.15;;;1.40;97.60;;;;;;5068113;28;20093;-66
2023/04/06 01:07:39;;;;;;;10.60;7.13;;;1.40;97.60;;;;;;5068474;28;20024;-67
2023/04/06 01:10:06;;;;;;;11.23;7.38;;;1.30;97.60;;;;;;5050915;28;20041;-66
2023/04/06 01:12:31;;;;;;;16.27;7.80;;;1.30;97.60;;;;;;5068640;28;20098;-67
2023/04/06 01:14:57;;;;;;;11.43;7.35;;;1.30;97.90;;;;;;5069369;28;20037;-67
2023/04/06 01:17:23;;;;;;;12.10;7.00;;;1.30;98.00;;;;;;5069596;28;20060;-66
2023/04/06 01:19:51;;;;;;;12.07;7.60;;;1.30;97.90;;;;;;5067721;28;20116;-67
2023/04/06 01:22:17;;;;;;;10.77;7.97;;;1.30;98.30;;;;;;5068086;28;20482;-66
2023/04/06 01:24:43;;;;;;;9.10;6.90;;;1.20;98.60;;;;;;5068015;28;20337;-66
2023/04/06 01:27:09;;;;;;;9.10;7.03;;;1.20;98.50;;;;;;5069217;28;20031;-67
2023/04/06 01:29:35;;;;;;;8.63;6.95;;;1.20;98.50;;;;;;5063738;28;20094;-67
2023/04/06 01:32:00;;;;;;;11.45;7.50;;;1.20;98.70;;;;;;5069347;28;20037;-66
2023/04/06 01:34:26;;;;;;;8.48;7.10;;;1.20;98.70;;;;;;5065225;28;20489;-66
2023/04/06 01:36:52;;;;;;;13.02;8.45;;;1.10;98.90;;;;;;5055267;28;20041;-66
2023/04/06 01:39:19;;;;;;;10.50;8.45;;;1.10;99.00;;;;;;5068930;28;20037;-67
2023/04/06 01:41:46;;;;;;;11.00;7.30;;;1.10;99.00;;;;;;5067331;28;20033;-66
2023/04/06 01:44:14;;;;;;;12.35;8.00;;;1.00;99.00;;;;;;5066632;28;20446;-67
2023/04/06 01:46:40;;;;;;;13.35;7.82;;;1.00;99.30;;;;;;5066702;28;20063;-66
2023/04/06 01:49:06;;;;;;;9.75;7.32;;;1.00;99.50;;;;;;5068232;28;20033;-66
2023/04/06 01:51:32;;;;;;;9.75;7.45;;;1.00;99.60;;;;;;5062677;28;20386;-67
2023/04/06 01:53:57;;;;;;;12.25;7.65;;;0.90;99.50;;;;;;5072948;28;20121;-67
2023/04/06 01:56:23;;;;;;;12.40;7.90;;;0.90;99.70;;;;;;5070927;28;20174;-67
2023/04/06 01:58:49;;;;;;;10.93;7.55;;;0.90;99.90;;;;;;5068389;28;20446;-67
2023/04/06 02:01:15;;;;;;;13.15;8.60;;;0.80;99.90;;;;;;5071195;28;20048;-67
2023/04/06 02:03:40;;;;;;;11.50;8.45;;;0.70;99.90;;;;;;5071821;28;20035;-67
2023/04/06 02:06:06;;;;;;;13.38;8.48;;;0.70;99.90;;;;;;5071145;28;20077;-67
2023/04/06 02:08:32;;;;;;;9.85;7.50;;;0.60;99.90;;;;;;5062563;28;20093;-67
2023/04/06 02:10:58;;;;;;;9.93;7.60;;;0.60;99.90;;;;;;5072819;28;20032;-65
2023/04/06 02:13:23;;;;;;;11.02;7.78;;;0.50;99.90;;;;;;5067835;28;20534;-65
2023/04/06 02:15:49;;;;;;;11.45;7.90;;;0.50;99.90;;;;;;5071580;28;20517;-64
2023/04/06 02:18:17;;;;;;;10.82;7.50;;;0.50;99.90;;;;;;5072724;28;20029;-65
2023/04/06 02:20:45;;;;;;;10.57;8.20;;;0.40;99.90;;;;;;5071545;28;20040;-65
2023/04/06 02:23:11;;;;;;;11.07;8.10;;;0.40;99.90;;;;;;5067318;28;20076;-65
2023/04/06 02:25:37;;;;;;;12.75;8.20;;;0.30;99.90;;;;;;5053231;28;20083;-67
2023/04/06 02:28:03;;;;;;;11.65;7.85;;;0.30;99.90;;;;;;5071726;28;20457;-65
2023/04/06 02:30:29;;;;;;;10.73;7.80;;;0.30;99.90;;;;;;5072477;28;20040;-65
2023/04/06 02:32:55;;;;;;;14.60;7.80;;;0.30;99.90;;;;;;5068384;28;20075;-65
2023/04/06 02:35:21;;;;;;;10.45;7.85;;;0.30;99.90;;;;;;5065793;28;20106;-67
2023/04/06 02:37:47;;;;;;;10.65;7.53;;;0.20;99.90;;;;;;5069182;28;20037;-67
2023/04/06 02:40:14;;;;;;;11.00;8.10;;;0.20;99.90;;;;;;5054196;28;20044;-67
2023/04/06 02:42:40;;;;;;;9.73;7.68;;;0.20;99.90;;;;;;5061032;28;20123;-67
2023/04/06 02:45:06;;;;;;;11.65;8.05;;;0.10;99.90;;;;;;5066191;28;20569;-67
2023/04/06 02:47:33;;;;;;;13.15;8.40;;;0.10;99.90;;;;;;5071826;28;20052;-67
2023/04/06 02:49:59;;;;;;;13.90;8.40;;;0.10;99.90;;;;;;5071609;28;20048;-66
2023/04/06 02:52:25;;;;;;;10.70;7.88;;;0.10;99.90;;;;;;5071989;28;20108;-66
2023/04/06 02:54:51;;;;;;;12.38;7.88;;;0.10;99.90;;;;;;5071672;28;20083;-67
2023/04/06 02:57:17;;;;;;;10.93;7.57;;;0.10;99.90;;;;;;5070932;28;20037;-67
2023/04/06 02:59:43;;;;;;;12.52;7.95;;;0.00;99.90;;;;;;5068751;28;20110;-67
2023/04/06 03:02:09;;;;;;;13.38;7.80;;;0.00;99.90;;;;;;5067671;28;20037;-67
2023/04/06 03:04:34;;;;;;;12.07;7.78;;;0.00;99.90;;;;;;5070277;28;20120;-67
2023/04/06 03:07:00;;;;;;;10.63;7.57;;;0.00;99.90;;;;;;5071016;28;20032;-67
2023/04/06 03:09:27;;;;;;;10.32;7.32;;;0.00;99.90;;;;;;5070135;28;20054;-66
2023/04/06 03:11:53;;;;;;;12.52;7.47;;;0.00;99.90;;;;;;5068111;28;20036;-67
2023/04/06 03:14:21;;;;;;;12.35;8.60;;;-0.10;99.90;;;;;;5068156;28;20109;-65
2023/04/06 03:16:48;;;;;;;13.05;7.40;;;-0.10;99.90;;;;;;5070152;28;20449;-65
2023/04/06 03:19:14;;;;;;;16.15;7.75;;;-0.10;99.90;;;;;;5066486;28;20067;-65
2023/04/06 03:21:39;;;;;;;13.70;7.60;;;-0.20;99.90;;;;;;5071383;28;20529;-65
2023/04/06 03:24:06;;;;;;;11.38;8.27;;;-0.20;99.90;;;;;;5069388;28;20061;-65
2023/04/06 03:26:31;;;;;;;14.00;8.45;;;-0.20;99.90;;;;;;5069297;28;20071;-65
2023/04/06 03:28:57;;;;;;;11.15;7.97;;;-0.20;99.90;;;;;;5069305;28;20058;-65
2023/04/06 03:31:23;;;;;;;11.88;7.82;;;-0.20;99.90;;;;;;5053120;28;20500;-65
2023/04/06 03:33:48;;;;;;;10.27;8.35;;;-0.20;99.90;;;;;;5064908;28;20040;-65
2023/04/06 03:36:14;;;;;;;12.50;8.80;;;-0.20;99.90;;;;;;5050268;28;20105;-65
2023/04/06 03:38:40;;;;;;;11.55;7.78;;;-0.30;99.90;;;;;;5026706;28;20037;-65
2023/04/06 03:41:06;;;;;;;12.30;8.48;;;-0.30;99.90;;;;;;5071088;28;20067;-65
2023/04/06 03:43:31;;;;;;;14.20;8.38;;;-0.30;99.90;;;;;;5035151;28;20055;-65
2023/04/06 03:45:57;;;;;;;10.65;8.23;;;-0.30;99.90;;;;;;5068827;28;20079;-65
2023/04/06 03:48:23;;;;;;;10.63;8.10;;;-0.30;99.90;;;;;;5070545;28;20109;-65
2023/04/06 03:50:49;;;;;;;11.50;7.68;;;-0.30;99.90;;;;;;5070913;28;20082;-65
2023/04/06 03:53:15;;;;;;;14.13;8.80;;;-0.30;99.90;;;;;;5068152;28;20040;-65
2023/04/06 03:55:41;;;;;;;14.98;8.27;;;-0.30;99.90;;;;;;5070772;28;20054;-65
2023/04/06 03:58:06;;;;;;;9.93;8.30;;;-0.30;99.90;;;;;;5069365;28;20079;-65
2023/04/06 04:00:32;;;;;;;12.13;8.88;;;-0.40;99.90;;;;;;5071116;28;20039;-65
2023/04/06 04:02:58;;;;;;;15.00;8.30;;;-0.40;99.90;;;;;;5069614;28;20055;-66
2023/04/06 04:05:25;;;;;;;13.02;8.32;;;-0.40;99.90;;;;;;5067734;28;20040;-65
2023/04/06 04:07:51;;;;;;;12.13;8.00;;;-0.50;99.90;;;;;;5069780;28;20043;-65
2023/04/06 04:10:17;;;;;;;12.18;8.18;;;-0.50;99.90;;;;;;5070463;28;20032;-66
2023/04/06 04:12:43;;;;;;;10.50;8.38;;;-0.50;99.90;;;;;;5066362;28;20035;-65
2023/04/06 04:15:09;;;;;;;13.25;8.60;;;-0.50;99.90;;;;;;5063809;28;20045;-65
2023/04/06 04:17:35;;;;;;;13.95;9.07;;;-0.50;99.90;;;;;;5042965;28;20041;-65
2023/04/06 04:20:01;;;;;;;14.63;8.80;;;-0.50;99.90;;;;;;5070550;28;20076;-65
2023/04/06 04:22:29;;;;;;;11.50;8.50;;;-0.50;99.90;;;;;;5068168;28;20091;-65
2023/04/06 04:24:55;;;;;;;13.02;8.30;;;-0.50;99.90;;;;;;5070164;28;20058;-65
2023/04/06 04:27:21;;;;;;;14.85;8.63;;;-0.50;99.90;;;;;;5070049;28;20485;-65
2023/04/06 04:29:47;;;;;;;17.05;8.68;;;-0.50;99.90;;;;;;5061337;28;20083;-65
2023/04/06 04:32:13;;;;;;;12.05;9.38;;;-0.50;99.90;;;;;;5070121;28;20079;-65
2023/04/06 04:34:41;;;;;;;14.57;9.00;;;-0.50;99.90;;;;;;5067304;28;20036;-65
2023/04/06 04:37:07;;;;;;;13.43;9.20;;;-0.50;99.90;;;;;;5068121;28;20046;-65
2023/04/06 04:39:33;;;;;;;11.38;8.68;;;-0.50;99.90;;;;;;5052282;28;20032;-65
2023/04/06 04:41:59;;;;;;;12.32;8.98;;;-0.50;99.90;;;;;;5067508;28;20128;-65
2023/04/06 04:44:24;;;;;;;13.30;9.50;;;-0.50;99.90;;;;;;5068677;28;20517;-65
2023/04/06 04:46:50;;;;;;;14.65;8.98;;;-0.60;99.90;;;;;;5051625;28;20048;-65
2023/04/06 04:49:16;;;;;;;14.88;9.55;;;-0.60;99.90;;;;;;5067376;28;20471;-66
2023/04/06 04:51:42;;;;;;;12.95;9.32;;;-0.70;99.90;;;;;;5068987;28;20044;-66
2023/04/06 04:54:07;;;;;;;13.30;9.55;;;-0.70;99.90;;;;;;5069650;28;20033;-65
2023/04/06 04:56:33;;;;;;;12.02;9.40;;;-0.70;99.90;;;;;;5067351;28;20049;-65
2023/04/06 04:58:59;;;;;;;14.00;10.15;;;-0.70;99.90;;;;;;5068282;28;20075;-66
2023/04/06 05:01:25;;;;;;;13.95;9.35;;;-0.70;99.90;;;;;;5066158;28;20032;-66
2023/04/06 05:03:51;;;;;;;15.35;9.73;;;-0.70;99.90;;;;;;5069086;28;20043;-65
2023/04/06 05:06:17;;;;;;;16.13;10.05;;;-0.70;99.90;;;;;;5067376;28;20051;-66
2023/04/06 05:08:43;;;;;;;14.30;9.73;;;-0.70;99.90;;;;;;5062485;28;20040;-66
2023/04/06 05:11:09;;;;;;;16.10;9.77;;;-0.70;99.90;;;;;;5069322;28;20037;-65
2023/04/06 05:13:35;;;;;;;15.90;8.90;;;-0.70;99.90;;;;;;5068037;28;20051;-65
2023/04/06 05:16:01;;;;;;;13.82;9.65;;;-0.70;99.90;;;;;;5068274;28;20043;-65
2023/04/06 05:18:27;;;;;;;15.52;9.55;;;-0.70;99.90;;;;;;5067483;28;20044;-65
2023/04/06 05:20:53;;;;;;;18.65;9.23;;;-0.60;99.90;;;;;;5067716;28;20062;-65
2023/04/06 05:23:19;;;;;;;12.93;9.30;;;-0.50;99.90;;;;;;5065227;28;20040;-66
2023/04/06 05:25:45;;;;;;;16.08;10.50;;;-0.50;99.90;;;;;;5068259;28;20040;-65
2023/04/06 05:28:13;;;;;;;12.05;9.00;;;-0.40;99.90;;;;;;5066872;28;20045;-65
2023/04/06 05:30:40;;;;;;;14.18;9.77;;;-0.40;99.90;;;;;;5069599;28;20542;-65
2023/04/06 05:33:05;;;;;;;14.73;9.60;;;-0.30;99.90;;;;;;5057305;28;20040;-65
2023/04/06 05:35:31;;;;;;;14.68;9.55;;;-0.30;99.90;;;;;;5066144;28;20048;-65
2023/04/06 05:37:57;;;;;;;13.82;9.63;;;-0.30;99.90;;;;;;5051154;28;20039;-65
2023/04/06 05:40:23;;;;;;;13.80;9.77;;;-0.30;99.90;;;;;;5068512;28;20036;-66
2023/04/06 05:42:49;;;;;;;13.18;10.35;;;-0.30;99.90;;;;;;5067710;28;20037;-65
2023/04/06 05:45:18;;;;;;;16.13;9.93;;;-0.30;99.90;;;;;;5068200;28;20041;-65
2023/04/06 05:47:45;;;;;;;13.50;9.65;;;-0.30;99.90;;;;;;5068700;28;20114;-65
2023/04/06 05:50:11;;;;;;;16.48;10.77;;;-0.30;99.90;;;;;;5069450;28;20090;-66
2023/04/06 05:52:37;;;;;;;15.23;9.93;;;-0.20;99.90;;;;;;5067530;28;20559;-66
2023/04/06 05:55:04;;;;;;;13.38;9.75;;;-0.20;99.90;;;;;;5066040;28;20048;-66
2023/04/06 05:57:30;;;;;;;14.80;9.75;;;-0.20;99.90;;;;;;5063643;28;20502;-66
2023/04/06 05:59:55;;;;;;;14.50;9.68;;;-0.10;99.90;;;;;;5064920;28;20225;-66
2023/04/06 06:02:21;;;;;;;17.58;9.18;;;-0.10;99.90;;;;;;5068633;28;20037;-66
2023/04/06 06:04:47;;;;;;;13.60;9.60;;;0.10;99.90;;;;;;5069027;28;20550;-65
2023/04/06 06:07:15;;;;;;;13.20;8.95;;;0.00;99.90;;;;;;5064751;28;20107;-66
2023/04/06 06:09:40;;;;;;;14.00;9.10;;;0.10;99.90;;;;;;5067143;28;20063;-66
2023/04/06 06:12:06;;;;;;;12.68;9.50;;;0.10;99.90;;;;;;5067048;28;20509;-66
2023/04/06 06:14:33;;;;;;;11.68;8.85;;;0.20;99.90;;;;;;5066741;28;20037;-66
2023/04/06 06:16:58;;;;;;;11.43;8.98;;;0.30;99.90;;;;;;5068846;28;20078;-66
2023/04/06 06:19:24;;;;;;;11.25;9.02;;;0.40;99.90;;;;;;5068556;28;20112;-66
2023/04/06 06:21:50;;;;;;;14.20;9.60;;;0.40;99.90;;;;;;5063141;28;20086;-66
2023/04/06 06:24:16;;;;;;;18.33;10.50;;;0.60;99.90;;;;;;5066712;28;20067;-65
2023/04/06 06:26:42;;;;;;;15.52;10.43;;;0.60;99.90;;;;;;5082978;28;20172;-66
2023/04/06 06:29:08;;;;;;;14.18;9.50;;;0.70;99.90;;;;;;5066118;28;20521;-66
2023/04/06 06:31:35;;;;;;;15.88;9.85;;;0.80;99.90;;;;;;5066967;28;20040;-66
2023/04/06 06:34:01;;;;;;;17.27;9.57;;;0.80;99.90;;;;;;5064786;28;20036;-66
2023/04/06 06:36:30;;;;;;;14.43;10.30;;;0.90;99.90;;;;;;5062875;28;20533;-66
2023/04/06 06:38:56;;;;;;;14.63;9.88;;;1.00;99.90;;;;;;5065382;28;20052;-65
2023/04/06 06:41:22;;;;;;;13.50;9.63;;;1.10;99.90;;;;;;5072340;28;20043;-66
2023/04/06 06:43:48;;;;;;;13.18;9.60;;;1.20;99.90;;;;;;5051834;28;20037;-66
2023/04/06 06:46:13;;;;;;;17.38;10.23;;;1.30;99.90;;;;;;5072177;28;20045;-65
2023/04/06 06:48:39;;;;;;;13.15;9.32;;;1.50;99.90;;;;;;5061950;28;20048;-65
2023/04/06 06:51:05;;;;;;;13.60;9.00;;;1.60;99.90;;;;;;5068684;28;20044;-66
2023/04/06 06:53:31;;;;;;;14.45;8.80;;;1.70;99.90;;;;;;5066576;28;20037;-66
2023/04/06 06:55:57;;;;;;;16.77;9.93;;;1.80;99.90;;;;;;5067984;28;20076;-66
2023/04/06 06:58:22;;;;;;;14.98;9.57;;;2.00;99.90;;;;;;5071276;28;20123;-66
2023/04/06 07:00:48;;;;;;;13.98;9.10;;;2.20;99.90;;;;;;5071598;28;20036;-66
2023/04/06 07:03:14;;;;;;;13.98;9.50;;;2.30;99.90;;;;;;5072034;28;20039;-66
2023/04/06 07:05:49;;;;;;;13.25;9.20;;;2.40;99.90;;;;;;5070121;28;20189;-66
2023/04/06 07:08:16;;;;;;;17.55;9.20;;;2.60;99.90;;;;;;5071851;28;20036;-66
2023/04/06 07:10:41;;;;;;;16.00;9.77;;;2.70;99.90;;;;;;5071667;28;20088;-66
2023/04/06 07:13:07;;;;;;;15.13;9.70;;;2.80;99.90;;;;;;5051112;28;20071;-66
2023/04/06 07:15:33;;;;;;;17.15;9.35;;;3.00;99.90;;;;;;5069426;28;20048;-66
2023/04/06 07:17:59;;;;;;;13.32;8.90;;;3.10;99.90;;;;;;5069705;28;20048;-66
2023/04/06 07:20:25;;;;;;;16.15;9.73;;;3.20;99.90;;;;;;5071574;28;20051;-65
2023/04/06 07:22:51;;;;;;;16.27;10.90;;;3.40;99.90;;;;;;5068169;28;20041;-66
2023/04/06 07:25:16;;;;;;;12.70;10.07;;;3.60;99.90;;;;;;5069287;28;20068;-66
2023/04/06 07:27:42;;;;;;;15.98;9.70;;;3.90;99.90;;;;;;5065806;28;20083;-66
2023/04/06 07:30:08;;;;;;;14.02;8.95;;;4.60;99.90;;;;;;5071417;28;20041;-66
2023/04/06 07:32:35;;;;;;;14.63;9.45;;;5.70;99.90;;;;;;5071381;28;20071;-66
2023/04/06 07:35:01;;;;;;;14.75;9.93;;;6.70;99.90;;;;;;5069276;28;20052;-66
2023/04/06 07:37:27;;;;;;;14.25;9.32;;;7.30;99.90;;;;;;5071173;28;20047;-66
2023/04/06 07:39:53;;;;;;;13.43;9.55;;;8.00;99.90;;;;;;5068206;28;20052;-66
2023/04/06 07:42:19;;;;;;;12.20;9.23;;;8.40;99.70;;;;;;5068151;28;20058;-66
2023/04/06 07:44:45;;;;;;;14.32;9.27;;;8.70;98.60;;;;;;5068930;28;20063;-66
2023/04/06 07:47:10;;;;;;;12.35;9.32;;;9.20;97.80;;;;;;5070573;28;20093;-66
2023/04/06 07:49:36;;;;;;;13.20;9.32;;;9.60;97.40;;;;;;5071225;28;20151;-66
2023/04/06 07:52:03;;;;;;;14.23;9.07;;;9.90;96.90;;;;;;5070388;28;20103;-66
2023/04/06 07:54:28;;;;;;;11.27;8.45;;;10.30;95.80;;;;;;5068843;28;20137;-66
2023/04/06 07:56:54;;;;;;;14.35;9.35;;;10.70;95.00;;;;;;5065493;28;20517;-66
2023/04/06 07:59:20;;;;;;;12.45;9.52;;;10.90;94.00;;;;;;5068332;28;20470;-66
2023/04/06 08:01:46;;;;;;;13.48;9.45;;;11.00;93.60;;;;;;5067828;28;20049;-66
2023/04/06 08:04:11;;;;;;;11.38;9.05;;;11.30;93.50;;;;;;5055209;28;20041;-66
2023/04/06 08:06:37;;;;;;;12.10;9.38;;;11.80;92.80;;;;;;5067399;28;20041;-66
2023/04/06 08:09:03;;;;;;;14.60;9.40;;;11.70;91.20;;;;;;5070492;28;20032;-66
2023/04/06 08:11:29;;;;;;;13.45;9.70;;;11.50;91.00;;;;;;5068419;28;20548;-66
2023/04/06 08:13:57;;;;;;;12.02;9.43;;;12.10;91.60;;;;;;5066644;28;20484;-66
2023/04/06 08:16:23;;;;;;;13.07;9.45;;;12.00;89.70;;;;;;5070137;28;20048;-66
2023/04/06 08:18:49;;;;;;;13.82;9.23;;;12.20;88.90;;;;;;5068581;28;20021;-66
2023/04/06 08:21:15;;;;;;;15.02;9.45;;;12.20;88.90;;;;;;5070141;28;20489;-66
2023/04/06 08:23:40;;;;;;;13.32;9.95;;;12.20;87.80;;;;;;5068333;28;20286;-66
2023/04/06 08:26:06;;;;;;;12.52;9.75;;;11.80;86.00;;;;;;5067794;28;20043;-66
2023/04/06 08:28:34;;;;;;;13.13;9.82;;;11.40;86.70;;;;;;5045012;28;20148;-66
2023/04/06 08:31:06;;;;;;;11.13;9.65;;;11.60;88.80;;;;;;5070265;28;20412;-66
2023/04/06 08:33:35;;;;;;;13.57;9.30;;;12.20;88.70;;;;;;5061592;28;20051;-66
2023/04/06 08:36:10;;;;;;;13.32;9.90;;;12.10;86.60;;;;;;5065939;28;20087;-66
2023/04/06 08:38:36;;;;;;;12.75;9.40;;;12.10;87.20;;;;;;5067420;28;20039;-66
2023/04/06 08:41:13;;;;;;;12.13;9.40;;;12.00;85.70;;;;;;5071189;28;20647;-66
2023/04/06 08:43:52;;;;;;;11.20;9.43;;;12.10;85.50;;;;;;5070168;28;20055;-66
2023/04/06 08:46:18;;;;;;;11.93;8.77;;;12.00;84.80;;;;;;5068377;28;20405;-66
2023/04/06 08:48:45;;;;;;;14.27;9.75;;;12.60;86.80;;;;;;5069766;28;20106;-66
2023/04/06 08:51:11;;;;;;;13.90;9.02;;;13.20;87.00;;;;;;5069690;28;20401;-66
2023/04/06 08:53:38;;;;;;;13.48;9.48;;;13.60;84.30;;;;;;5069149;28;20032;-66
2023/04/06 08:56:05;;;;;;;12.63;9.10;;;13.50;82.40;;;;;;5069532;28;20498;-66
2023/04/06 08:58:37;;;;;;;11.88;9.70;;;13.60;83.00;;;;;;5069619;28;20036;-66
2023/04/06 09:01:08;;;;;;;16.73;9.73;;;13.70;82.10;;;;;;5067326;28;20047;-66
2023/04/06 09:03:39;;;;;;;12.98;9.63;;;14.20;81.80;;;;;;5065800;28;20405;-66
2023/04/06 09:06:06;;;;;;;12.63;10.00;;;14.20;80.80;;;;;;5068823;28;20044;-66
2023/04/06 09:08:37;;;;;;;15.05;10.38;;;14.20;79.50;;;;;;5067740;28;20041;-66
2023/04/06 09:11:04;;;;;;;18.92;10.63;;;14.20;79.70;;;;;;5067992;28;20044;-66
2023/04/06 09:13:30;;;;;;;14.88;9.85;;;14.10;77.90;;;;;;5069335;28;20040;-66
2023/04/06 09:16:03;;;;;;;11.23;8.93;;;14.20;79.90;;;;;;5067213;28;20098;-66
2023/04/06 09:18:33;;;;;;;12.80;9.85;;;13.60;77.60;;;;;;5068313;28;20040;-66
2023/04/06 09:21:05;;;;;;;24.08;10.23;;;13.20;78.00;;;;;;5069673;28;20393;-66
2023/04/06 09:23:31;;;;;;;15.18;9.85;;;13.50;78.30;;;;;;5069417;28;20040;-66
2023/04/06 09:26:17;;;;;;;13.15;9.80;;;13.50;76.70;;;;;;5064010;28;20371;-66
2023/04/06 09:28:42;;;;;;;13.80;9.98;;;13.70;78.90;;;;;;5067405;28;20048;-66
2023/04/06 09:31:09;;;;;;;12.30;9.88;;;14.60;79.80;;;;;;5064929;28;20040;-66
2023/04/06 09:33:39;;;;;;;13.45;10.35;;;14.40;77.20;;;;;;5067108;28;20044;-66
2023/04/06 09:36:05;;;;;;;14.77;9.55;;;14.50;76.70;;;;;;5067673;28;20094;-66
2023/04/06 09:38:31;;;;;;;15.55;10.30;;;14.50;75.80;;;;;;5069247;28;20039;-66
2023/04/06 09:40:57;;;;;;;16.65;10.38;;;14.60;76.20;;;;;;5065966;28;20036;-66
2023/04/06 09:43:29;;;;;;;13.00;9.88;;;14.20;74.10;;;;;;5066251;28;20036;-66
2023/04/06 09:45:56;;;;;;;13.32;10.65;;;13.70;73.80;;;;;;5067558;28;20040;-66
2023/04/06 09:48:24;;;;;;;14.25;9.80;;;13.70;75.90;;;;;;5068911;28;20049;-66
2023/04/06 09:50:55;;;;;;;17.08;9.88;;;13.30;74.90;;;;;;5069065;28;20043;-66
2023/04/06 09:53:25;;;;;;;15.63;11.10;;;12.60;76.10;;;;;;5067138;28;20068;-66
2023/04/06 09:55:56;;;;;;;15.55;11.00;;;12.10;77.70;;;;;;5065262;28;20032;-66
2023/04/06 09:58:26;;;;;;;22.67;11.93;;;11.70;77.50;;;;;;5069155;28;20108;-66
2023/04/06 10:01:19;;;;;;;15.75;11.10;;;11.80;78.10;;;;;;5065548;28;21033;-66
2023/04/06 10:03:49;;;;;;;18.77;12.13;;;11.90;78.50;;;;;;5067647;28;20480;-66
2023/04/06 10:06:17;;;;;;;18.80;12.55;;;12.00;78.20;;;;;;5068790;28;20037;-66
2023/04/06 10:08:47;;;;;;;16.83;11.27;;;11.90;78.00;;;;;;5068655;28;20497;-66
2023/04/06 10:11:13;;;;;;;18.52;11.75;;;11.90;78.30;;;;;;5069120;28;20036;-66
2023/04/06 10:13:39;;;;;;;16.67;12.15;;;11.80;78.70;;;;;;5072541;28;20049;-66
2023/04/06 10:16:07;;;;;;;21.13;13.13;;;11.80;78.70;;;;;;5067588;28;20037;-67
2023/04/06 10:18:33;;;;;;;18.45;12.40;;;11.70;79.60;;;;;;5067189;28;20051;-66
2023/04/06 10:21:15;;;;;;;21.02;13.70;;;11.60;79.00;;;;;;5070718;28;20519;-67
2023/04/06 10:23:51;;;;;;;20.48;13.90;;;11.30;78.10;;;;;;5068768;28;20123;-67
2023/04/06 10:26:20;;;;;;;22.13;13.63;;;11.30;79.00;;;;;;5070549;28;20479;-67
2023/04/06 10:28:48;;;;;;;20.80;14.13;;;11.50;79.60;;;;;;5072275;28;20028;-66
2023/04/06 10:31:14;;;;;;;20.13;13.68;;;11.80;78.90;;;;;;5069057;28;20075;-66
2023/04/06 10:33:41;;;;;;;19.92;12.90;;;12.30;79.70;;;;;;5067238;28;20504;-67
2023/04/06 10:36:14;;;;;;;21.60;14.93;;;12.60;79.10;;;;;;5071470;28;20032;-67
2023/04/06 10:38:41;;;;;;;21.77;13.95;;;12.80;78.60;;;;;;5056585;28;20549;-67
2023/04/06 10:41:09;;;;;;;21.30;14.68;;;13.30;79.00;;;;;;5068489;28;20035;-66
2023/04/06 10:43:37;;;;;;;23.35;14.18;;;13.50;74.80;;;;;;5072044;28;20036;-67
2023/04/06 10:46:04;;;;;;;25.33;14.15;;;13.70;76.70;;;;;;5072502;28;20044;-67
2023/04/06 10:48:45;;;;;;;22.08;14.02;;;13.80;75.30;;;;;;5069983;28;20059;-66
2023/04/06 10:51:16;;;;;;;22.38;15.00;;;13.80;74.50;;;;;;5072253;28;20540;-67
2023/04/06 10:53:45;;;;;;;19.42;13.45;;;13.70;75.90;;;;;;5072034;28;20040;-67
2023/04/06 10:56:12;;;;;;;28.13;15.23;;;13.70;76.70;;;;;;5067880;28;20039;-67
2023/04/06 10:58:44;;;;;;;23.50;14.18;;;13.40;75.10;;;;;;5082061;28;20044;-67
2023/04/06 11:01:11;;;;;;;21.20;13.85;;;13.40;76.30;;;;;;5071814;28;20037;-67
2023/04/06 11:03:48;;;;;;;24.45;14.90;;;12.90;73.90;;;;;;5068090;28;20032;-66
2023/04/06 11:06:29;;;;;;;24.05;17.83;;;13.00;76.50;;;;;;5070467;28;20508;-66
2023/04/06 11:08:56;;;;;;;25.40;15.07;;;13.40;76.20;;;;;;5071926;28;20036;-67
2023/04/06 11:11:25;;;;;;;24.38;16.20;;;13.80;74.90;;;;;;5068794;28;20032;-66
2023/04/06 11:13:53;;;;;;;22.75;15.25;;;13.50;74.90;;;;;;5072801;28;20111;-67
2023/04/06 11:16:24;;;;;;;25.02;15.60;;;13.40;74.20;;;;;;5071563;28;20167;-66
2023/04/06 11:19:01;;;;;;;24.25;14.93;;;13.50;75.50;;;;;;5063815;28;20075;-67
2023/04/06 11:21:43;;;;;;;21.85;16.17;;;13.50;75.60;;;;;;5071510;28;20517;-67
2023/04/06 11:24:20;;;;;;;25.67;16.27;;;13.70;75.40;;;;;;5071135;28;20037;-66
2023/04/06 11:26:57;;;;;;;20.60;14.88;;;13.70;73.70;;;;;;5070212;28;20036;-67
2023/04/06 11:29:29;;;;;;;25.58;15.68;;;13.30;74.60;;;;;;5068312;28;20040;-66
2023/04/06 11:32:00;;;;;;;26.00;16.63;;;13.50;74.20;;;;;;5070682;28;20117;-67
2023/04/06 11:34:28;;;;;;;22.40;15.45;;;13.50;75.10;;;;;;5068956;28;20040;-66
2023/04/06 11:36:59;;;;;;;22.40;14.57;;;13.30;73.60;;;;;;5069041;28;20040;-66
2023/04/06 11:39:27;;;;;;;24.07;15.50;;;13.30;75.00;;;;;;5070887;28;20032;-66
2023/04/06 11:41:56;;;;;;;25.00;16.65;;;13.10;72.90;;;;;;5068762;28;20786;-67
2023/04/06 11:44:40;;;;;;;25.33;16.08;;;12.80;72.30;;;;;;5069515;28;20040;-66
2023/04/06 11:47:07;;;;;;;22.40;15.82;;;13.10;75.30;;;;;;5071369;28;20047;-66
2023/04/06 11:49:37;;;;;;;24.30;15.93;;;13.30;74.90;;;;;;5069548;28;20048;-66
2023/04/06 11:52:18;;;;;;;23.25;16.25;;;13.30;73.90;;;;;;5070041;28;20040;-66
2023/04/06 11:54:44;;;;;;;26.02;16.58;;;13.50;75.10;;;;;;5070257;28;20112;-67
2023/04/06 11:57:10;;;;;;;23.05;16.15;;;13.40;73.30;;;;;;5051903;28;20036;-67
2023/04/06 11:59:35;;;;;;;29.05;17.23;;;13.60;74.80;;;;;;5070651;28;20036;-66
2023/04/06 12:02:02;;;;;;;25.20;17.00;;;13.70;74.70;;;;;;5070831;28;20519;-67
2023/04/06 12:04:29;;;;;;;27.23;16.85;;;13.60;72.60;;;;;;5066465;28;20275;-67
2023/04/06 12:06:55;;;;;;;21.75;15.90;;;13.60;73.30;;;;;;5066941;28;20386;-66
2023/04/06 12:09:20;;;;;;;25.15;17.00;;;13.60;73.10;;;;;;5068426;28;20524;-67
2023/04/06 12:11:46;;;;;;;26.20;16.42;;;13.60;73.80;;;;;;5069101;28;20123;-66
2023/04/06 12:14:13;;;;;;;24.70;17.70;;;13.60;73.80;;;;;;5066021;28;20040;-66
2023/04/06 12:16:39;;;;;;;22.40;15.82;;;13.40;73.40;;;;;;5068472;28;20028;-66
2023/04/06 12:19:05;;;;;;;27.90;17.75;;;13.20;73.90;;;;;;5070473;28;20032;-66
2023/04/06 12:21:32;;;;;;;25.38;16.88;;;12.90;75.70;;;;;;5067902;28;20024;-66
2023/04/06 12:23:59;;;;;;;26.58;16.77;;;13.00;74.60;;;;;;5068893;28;20028;-66
2023/04/06 12:26:26;;;;;;;29.25;17.65;;;13.20;74.50;;;;;;5060817;28;20029;-66
2023/04/06 12:28:52;;;;;;;29.00;17.65;;;13.30;72.70;;;;;;5070569;28;20467;-67
2023/04/06 12:31:19;;;;;;;27.50;17.90;;;13.40;72.50;;;;;;5070187;28;20537;-67
2023/04/06 12:33:52;;;;;;;24.60;16.67;;;13.40;72.00;;;;;;5067906;28;20444;-66
2023/04/06 12:36:18;;;;;;;;;;;13.30;72.50;;;;;;5068489;28;20071;-66
2023/04/06 12:38:46;;;;;;;24.45;16.63;;;13.40;73.80;;;;;;5069276;28;20387;-67